Time;durP1;ratioP1;P1;durP2;ratioP2;P2;SDS_P1;SDS_P2;PMS_P1;PMS_P2;Temp;Humidity;BMP_temperature;BMP_pressure;BME280_temperature;BME280_humidity;BME280_pressure;Samples;Min_cycle;Max_cycle;Signal;HPM_P1;HPM_P2
2021/11/18 00:00:05;;;;;;;21.40;12.75;;;;;;;6.23;86.07;101233.86;1635316;85;21355;-70
2021/11/18 00:02:35;;;;;;;22.93;13.20;;;;;;;6.24;86.08;101234.27;1638829;86;20868;-70
2021/11/18 00:05:01;;;;;;;23.27;13.28;;;;;;;6.24;86.09;101237.69;1654314;85;20951;-70
2021/11/18 00:07:27;;;;;;;24.90;12.47;;;;;;;6.26;86.08;101235.14;1659607;85;20955;-70
2021/11/18 00:09:53;;;;;;;22.03;13.03;;;;;;;6.26;86.07;101235.14;1659689;85;20975;-70
2021/11/18 00:12:19;;;;;;;23.87;13.07;;;;;;;6.28;86.07;101242.02;1659896;85;22364;-70
2021/11/18 00:14:44;;;;;;;21.93;13.10;;;;;;;6.30;86.09;101245.89;1660152;85;20884;-70
2021/11/18 00:17:10;;;;;;;25.27;13.07;;;;;;;6.30;86.09;101244.19;1659951;85;21393;-70
2021/11/18 00:19:37;;;;;;;24.27;13.38;;;;;;;6.32;86.10;101250.63;1649667;85;21002;-70
2021/11/18 00:22:03;;;;;;;23.17;13.13;;;;;;;6.33;86.12;101248.50;1660046;85;20903;-70
2021/11/18 00:24:29;;;;;;;20.77;12.85;;;;;;;6.35;86.08;101254.94;1647088;85;20958;-70
2021/11/18 00:26:56;;;;;;;19.30;11.80;;;;;;;6.36;86.10;101254.09;1633452;86;21304;-70
2021/11/18 00:29:23;;;;;;;23.42;12.98;;;;;;;6.36;86.09;101249.81;1632746;86;21093;-70
2021/11/18 00:31:51;;;;;;;1999.90;999.90;;;;;;;6.37;86.09;101248.11;1633118;86;21037;-70
2021/11/18 00:34:16;;;;;;;1999.90;999.90;;;;;;;6.39;86.08;101264.41;1642316;85;20946;-70
2021/11/18 00:36:43;;;;;;;1999.90;999.90;;;;;;;6.39;86.09;101255.41;1634246;86;21247;-70
2021/11/18 00:39:10;;;;;;;1999.90;999.90;;;;;;;6.41;86.10;101258.86;1632958;87;26593;-70
2021/11/18 00:41:37;;;;;;;1999.90;999.90;;;;;;;6.41;86.09;101258.44;1668575;85;21280;-70
2021/11/18 00:44:06;;;;;;;1999.90;999.90;;;;;;;6.42;86.10;101264.02;1653378;86;21501;-70
2021/11/18 00:46:33;;;;;;;1999.90;999.90;;;;;;;6.42;86.07;101269.15;1660270;85;21010;-70
2021/11/18 00:49:01;;;;;;;1999.90;999.90;;;;;;;6.42;86.07;101275.57;1653630;85;21042;-71
2021/11/18 00:51:27;;;;;;;1999.90;999.90;;;;;;;6.42;86.05;101275.57;1647716;85;21062;-70
2021/11/18 00:53:58;;;;;;;1999.90;999.90;;;;;;;6.42;86.07;101268.29;1660133;85;20990;-70
2021/11/18 00:56:26;;;;;;;1999.90;999.90;;;;;;;6.42;86.03;101269.58;1644908;86;21024;-70
2021/11/18 00:58:55;;;;;;;1999.90;999.90;;;;;;;6.39;86.02;101276.82;1632844;86;21033;-70
2021/11/18 01:01:26;;;;;;;1999.90;999.90;;;;;;;6.39;86.04;101283.66;1635165;86;20934;-70
2021/11/18 01:03:53;;;;;;;1999.90;999.90;;;;;;;6.40;86.08;101292.67;1652525;86;20896;-70
2021/11/18 01:06:23;;;;;;;1519.23;754.85;;;;;;;6.39;86.05;101292.66;1646595;86;21347;-70
2021/11/18 01:08:49;;;;;;;1999.90;999.90;;;;;;;6.39;86.06;101291.37;1633891;86;20981;-70
2021/11/18 01:11:24;;;;;;;1999.90;999.90;;;;;;;6.36;86.06;101289.62;1633277;86;21029;-70
2021/11/18 01:13:52;;;;;;;1999.90;999.90;;;;;;;6.37;86.06;101295.63;1632929;86;21073;-70
2021/11/18 01:16:23;;;;;;;1999.90;999.90;;;;;;;6.38;86.08;101293.50;1632972;86;21049;-70
2021/11/18 01:18:49;;;;;;;1999.90;999.90;;;;;;;6.37;86.10;101291.35;1634637;86;20927;-70
2021/11/18 01:21:17;;;;;;;1999.90;999.90;;;;;;;6.38;86.11;101295.64;1634622;86;20902;-70
2021/11/18 01:23:46;;;;;;;1999.90;999.90;;;;;;;6.39;86.08;101299.94;1634724;87;21018;-70
2021/11/18 01:26:18;;;;;;;1999.90;999.90;;;;;;;6.41;86.09;101299.95;1634798;86;20903;-70
2021/11/18 01:28:45;;;;;;;1999.90;999.90;;;;;;;6.43;86.08;101302.13;1634584;86;20871;-70
2021/11/18 01:31:12;;;;;;;1999.90;999.90;;;;;;;6.42;86.09;101299.98;1634520;87;20946;-70
2021/11/18 01:33:39;;;;;;;1999.90;999.90;;;;;;;6.43;86.08;101297.85;1651513;84;20946;-70
2021/11/18 01:36:05;;;;;;;;;;;;;;;6.44;86.07;101299.58;1652810;86;20958;-70
2021/11/18 01:38:32;;;;;;;;;;;;;;;6.44;86.07;101298.29;1676881;85;20281;-70
2021/11/18 01:41:05;;;;;;;1999.90;999.90;;;;;;;6.45;86.06;101297.45;1684802;84;20116;-70
2021/11/18 01:43:37;;;;;;;1999.90;999.90;;;;;;;6.46;86.08;101307.30;1657527;85;20891;-70
2021/11/18 01:46:11;;;;;;;1999.90;999.90;;;;;;;6.46;86.09;101303.02;1656968;86;21127;-70
2021/11/18 01:48:37;;;;;;;1999.90;999.90;;;;;;;6.46;86.08;101315.00;1684396;85;20903;-70
2021/11/18 01:51:05;;;;;;;1999.90;999.90;;;;;;;6.46;86.07;101305.59;1679856;84;20935;-70
2021/11/18 01:53:37;;;;;;;1999.90;999.90;;;;;;;6.46;86.07;101309.87;1684721;83;21352;-70
2021/11/18 01:56:13;;;;;;;1999.90;999.90;;;;;;;6.46;86.07;101309.87;1684624;83;21381;-70
2021/11/18 01:58:40;;;;;;;;;;;;;;;6.47;86.07;101309.02;1671236;84;20982;-70
2021/11/18 02:01:10;;;;;;;1999.90;999.90;;;;;;;6.48;86.07;101303.05;1655765;85;20181;-70
2021/11/18 02:03:37;;;;;;;1999.90;999.90;;;;;;;6.47;86.05;101302.60;1671891;85;21075;-70
2021/11/18 02:06:26;;;;;;;1999.90;999.90;;;;;;;6.48;86.08;101303.05;1650004;86;21607;-70
2021/11/18 02:08:52;;;;;;;1999.90;999.90;;;;;;;6.48;86.10;101299.19;1678653;85;21078;-70
2021/11/18 02:11:38;;;;;;;1999.90;999.90;;;;;;;6.48;86.09;101301.33;1660275;85;21088;-70
2021/11/18 02:14:09;;;;;;;1999.90;999.90;;;;;;;6.50;86.08;101300.06;1675032;84;20910;-70
2021/11/18 02:16:37;;;;;;;1999.90;999.90;;;;;;;6.50;86.07;101298.78;1657466;85;20887;-70
2021/11/18 02:19:04;;;;;;;1999.90;999.90;;;;;;;6.49;86.06;101300.49;1657411;86;20867;-70
2021/11/18 02:21:30;;;;;;;1999.90;999.90;;;;;;;6.49;86.07;101299.20;1657368;86;20914;-70
2021/11/18 02:24:02;;;;;;;1999.90;999.90;;;;;;;6.50;86.07;101297.08;1657429;84;20898;-70
2021/11/18 02:26:28;;;;;;;1999.90;999.90;;;;;;;6.51;86.08;101299.23;1656001;86;20899;-70
2021/11/18 02:28:58;;;;;;;1999.90;999.90;;;;;;;6.50;86.10;101294.51;1681053;85;20891;-70
2021/11/18 02:31:41;;;;;;;1999.90;999.90;;;;;;;6.51;86.11;101305.22;1661400;85;20993;-70
2021/11/18 02:34:12;;;;;;;1999.90;999.90;;;;;;;6.53;86.07;101305.24;1667886;85;21367;-70
2021/11/18 02:36:39;;;;;;;1999.90;999.90;;;;;;;6.51;86.05;101296.23;1657268;86;21363;-70
2021/11/18 02:39:06;;;;;;;1999.90;999.90;;;;;;;6.51;86.04;101297.52;1657480;86;20945;-70
2021/11/18 02:41:34;;;;;;;1999.90;999.90;;;;;;;6.51;86.04;101300.09;1662739;85;21447;-70
2021/11/18 02:44:00;;;;;;;1999.90;999.90;;;;;;;6.51;86.04;101303.94;1663990;84;20851;-70
2021/11/18 02:46:26;;;;;;;1999.90;999.90;;;;;;;6.53;86.07;101297.53;1659560;85;20915;-70
2021/11/18 02:48:52;;;;;;;1999.90;999.90;;;;;;;6.53;86.07;101300.11;1685344;84;20966;-70
2021/11/18 02:51:22;;;;;;;1999.90;999.90;;;;;;;6.53;86.06;101300.97;1673310;83;20937;-70
2021/11/18 02:53:49;;;;;;;1999.90;999.90;;;;;;;6.54;86.07;101306.97;1685217;85;20856;-70
2021/11/18 02:56:17;;;;;;;1999.90;999.90;;;;;;;6.54;86.08;101308.25;1681294;84;20915;-70
2021/11/18 02:58:44;;;;;;;1999.90;999.90;;;;;;;6.53;86.05;101307.81;1669188;85;20939;-70
2021/11/18 03:01:22;;;;;;;1999.90;999.90;;;;;;;6.51;86.01;101308.22;1668942;84;20934;-70
2021/11/18 03:03:51;;;;;;;1999.90;999.90;;;;;;;6.50;86.03;101310.34;1665437;85;20903;-70
2021/11/18 03:06:18;;;;;;;1999.90;999.90;;;;;;;6.49;86.02;101310.77;1657316;86;21427;-70
2021/11/18 03:08:47;;;;;;;1999.90;999.90;;;;;;;6.49;86.03;101307.34;1664951;85;20919;-70
2021/11/18 03:11:15;;;;;;;1999.90;999.90;;;;;;;6.46;86.02;101308.58;1684909;84;20895;-70
2021/11/18 03:13:41;;;;;;;1999.90;999.90;;;;;;;6.43;86.03;101305.55;1683793;84;21535;-70
2021/11/18 03:16:10;;;;;;;1999.90;999.90;;;;;;;6.42;86.00;101314.53;1671833;84;21104;-70
2021/11/18 03:18:36;;;;;;;1999.90;999.90;;;;;;;6.38;86.00;101316.20;1656231;85;21018;-70
2021/11/18 03:21:04;;;;;;;;;;;;;;;6.35;86.00;101308.88;1658251;86;20970;-70
2021/11/18 03:23:31;;;;;;;1999.90;999.90;;;;;;;6.33;86.00;101317.84;1657205;86;20106;-70
2021/11/18 03:25:57;;;;;;;1999.90;999.90;;;;;;;6.28;85.96;101323.34;1672499;85;20927;-70
2021/11/18 03:28:26;;;;;;;1999.90;999.90;;;;;;;6.25;85.98;101331.00;1684909;84;20939;-70
2021/11/18 03:30:53;;;;;;;1999.90;999.90;;;;;;;6.25;86.06;101336.14;1684770;84;20895;-70
2021/11/18 03:33:26;;;;;;;1999.90;999.90;;;;;;;6.25;86.10;101345.13;1676907;84;20902;-70
2021/11/18 03:35:54;;;;;;;1999.90;999.90;;;;;;;6.26;86.12;101344.29;1634013;86;20903;-70
2021/11/18 03:38:22;;;;;;;1999.90;999.90;;;;;;;6.28;86.12;101349.89;1640009;86;21506;-70
2021/11/18 03:40:54;;;;;;;1999.90;999.90;;;;;;;6.31;86.12;101343.93;1634009;86;21431;-70
2021/11/18 03:43:20;;;;;;;1999.90;999.90;;;;;;;6.31;86.14;101342.64;1634250;85;21522;-70
2021/11/18 03:45:50;;;;;;;1999.90;999.90;;;;;;;6.35;86.14;101348.27;1645673;86;21476;-70
2021/11/18 03:48:19;;;;;;;1999.90;999.90;;;;;;;6.37;86.12;101351.72;1655453;85;20888;-70
2021/11/18 03:50:46;;;;;;;1999.90;999.90;;;;;;;6.39;86.12;101343.61;1659951;85;20864;-70
2021/11/18 03:53:13;;;;;;;1999.90;999.90;;;;;;;6.41;86.11;101354.77;1659305;84;21357;-70
2021/11/18 03:55:40;;;;;;;1999.90;999.90;;;;;;;6.42;86.08;101356.49;1646618;86;20887;-70
2021/11/18 03:58:09;;;;;;;1999.90;999.90;;;;;;;6.44;86.08;101356.09;1656634;86;20888;-70
2021/11/18 04:00:38;;;;;;;1999.90;999.90;;;;;;;6.46;86.08;101364.68;1659543;85;20963;-70
2021/11/18 04:03:07;;;;;;;1999.90;999.90;;;;;;;6.48;86.06;101359.56;1657198;86;21633;-70
2021/11/18 04:05:34;;;;;;;1999.90;999.90;;;;;;;6.49;86.04;101354.86;1648390;85;21368;-70
2021/11/18 04:08:00;;;;;;;1999.90;999.90;;;;;;;6.49;86.03;101363.44;1633514;87;21028;-70
2021/11/18 04:10:31;;;;;;;1999.90;999.90;;;;;;;6.50;86.01;101370.72;1636856;86;21664;-70
2021/11/18 04:13:00;;;;;;;1999.90;999.90;;;;;;;6.51;85.99;101375.87;1658377;86;21403;-70
2021/11/18 04:15:27;;;;;;;1999.90;999.90;;;;;;;6.53;85.98;101378.05;1658123;85;21448;-70
2021/11/18 04:17:54;;;;;;;1999.90;999.90;;;;;;;6.53;85.98;101378.05;1632899;86;21484;-70
2021/11/18 04:20:22;;;;;;;1999.90;999.90;;;;;;;6.54;85.97;101381.48;1648283;86;21393;-70
2021/11/18 04:22:51;;;;;;;1999.90;999.90;;;;;;;6.55;85.94;101384.06;1637623;85;20934;-70
2021/11/18 04:25:22;;;;;;;1999.90;999.90;;;;;;;6.56;85.94;101381.08;1633756;86;21583;-70
2021/11/18 04:27:48;;;;;;;1999.90;999.90;;;;;;;6.55;85.93;101382.78;1646719;86;21840;-70
2021/11/18 04:30:18;;;;;;;1999.90;999.90;;;;;;;6.56;85.92;101384.51;1648695;85;20959;-70
2021/11/18 04:32:45;;;;;;;1999.90;999.90;;;;;;;6.57;85.94;101393.94;1660794;86;20948;-70
2021/11/18 04:35:12;;;;;;;1999.90;999.90;;;;;;;6.57;85.90;101386.66;1621283;87;20971;-70
2021/11/18 04:37:44;;;;;;;1999.90;999.90;;;;;;;6.58;85.93;101386.67;1657376;85;21430;-70
2021/11/18 04:40:12;;;;;;;1999.90;999.90;;;;;;;6.58;85.92;101380.25;1639988;85;20892;-73
2021/11/18 04:42:40;;;;;;;1999.90;999.90;;;;;;;6.59;85.87;101386.25;1658118;85;20928;-69
2021/11/18 04:45:08;;;;;;;1999.90;999.90;;;;;;;6.59;85.87;101386.25;1644976;85;21423;-69
2021/11/18 04:47:34;;;;;;;1999.90;999.90;;;;;;;6.58;85.85;101384.11;1652041;86;21392;-69
2021/11/18 04:50:01;;;;;;;1999.90;999.90;;;;;;;6.57;85.84;101377.24;1652666;85;20845;-69
2021/11/18 04:52:27;;;;;;;1999.90;999.90;;;;;;;6.55;85.78;101380.63;1653971;85;27774;-71
2021/11/18 04:54:53;;;;;;;1999.90;999.90;;;;;;;6.52;85.79;101383.16;1657295;85;20869;-69
2021/11/18 04:57:21;;;;;;;1999.90;999.90;;;;;;;6.49;85.81;101385.27;1667392;84;20943;-69
2021/11/18 04:59:47;;;;;;;1999.90;999.90;;;;;;;6.48;85.82;101379.69;1649842;86;21085;-69
2021/11/18 05:02:13;;;;;;;1999.90;999.90;;;;;;;6.47;85.83;101377.10;1655614;85;21516;-69
2021/11/18 05:04:40;;;;;;;1999.90;999.90;;;;;;;6.46;85.82;101381.80;1639021;86;21038;-69
2021/11/18 05:07:06;;;;;;;1999.90;999.90;;;;;;;6.44;85.78;101376.64;1646156;86;20880;-69
2021/11/18 05:09:32;;;;;;;1999.90;999.90;;;;;;;6.42;85.77;101383.89;1658075;85;20904;-69
2021/11/18 05:11:59;;;;;;;1999.90;999.90;;;;;;;6.40;85.79;101395.42;1642494;85;21090;-69
2021/11/18 05:14:25;;;;;;;;;;;;;;;6.40;85.80;101395.84;1633111;86;21497;-69
2021/11/18 05:16:52;;;;;;;1999.90;999.90;;;;;;;6.37;85.78;101396.67;1648904;86;20207;-69
2021/11/18 05:19:21;;;;;;;1999.90;999.90;;;;;;;6.36;85.79;101392.37;1655598;85;21387;-69
2021/11/18 05:21:46;;;;;;;1999.90;999.90;;;;;;;6.34;85.77;101395.34;1651889;84;21558;-69
2021/11/18 05:24:12;;;;;;;1999.90;999.90;;;;;;;6.35;85.79;101406.48;1657385;85;20845;-69
2021/11/18 05:26:39;;;;;;;1999.90;999.90;;;;;;;6.33;85.80;101400.03;1645017;86;21486;-69
2021/11/18 05:29:06;;;;;;;1999.90;999.90;;;;;;;6.32;85.80;101400.88;1598936;88;21569;-69
2021/11/18 05:31:32;;;;;;;1999.90;999.90;;;;;;;6.31;85.83;101398.73;1637300;86;21384;-69
2021/11/18 05:33:59;;;;;;;1999.90;999.90;;;;;;;6.33;85.81;101409.44;1657228;86;20963;-69
2021/11/18 05:36:25;;;;;;;1999.90;999.90;;;;;;;6.31;85.80;101412.85;1684729;84;20946;-69
2021/11/18 05:38:51;;;;;;;1999.90;999.90;;;;;;;6.31;85.82;101411.57;1666506;85;20899;-69
2021/11/18 05:41:19;;;;;;;1999.90;999.90;;;;;;;6.32;85.81;101409.87;1663240;85;21370;-68
2021/11/18 05:43:46;;;;;;;1999.90;999.90;;;;;;;6.31;85.81;101403.86;1672778;85;21366;-69
2021/11/18 05:46:15;;;;;;;1999.90;999.90;;;;;;;6.31;85.81;101399.15;1663242;85;21390;-69
2021/11/18 05:48:41;;;;;;;1999.90;999.90;;;;;;;6.31;85.80;101405.56;1670949;85;20879;-69
2021/11/18 05:51:10;;;;;;;1999.90;999.90;;;;;;;6.32;85.79;101411.15;1673328;84;26047;-69
2021/11/18 05:53:41;;;;;;;1999.90;999.90;;;;;;;6.31;85.79;101416.70;1679493;83;20898;-69
2021/11/18 05:56:11;;;;;;;1999.90;999.90;;;;;;;6.32;85.76;101417.57;1680524;85;20939;-68
2021/11/18 05:58:40;;;;;;;1999.90;999.90;;;;;;;6.32;85.79;101418.86;1684517;84;20938;-69
2021/11/18 06:01:08;;;;;;;1999.90;999.90;;;;;;;6.33;85.79;101425.72;1685617;85;20852;-69
2021/11/18 06:03:36;;;;;;;1999.90;999.90;;;;;;;6.35;85.77;101421.89;1687667;84;20938;-69
2021/11/18 06:06:03;;;;;;;1999.90;999.90;;;;;;;6.34;85.76;101425.30;1687734;83;20878;-69
2021/11/18 06:08:29;;;;;;;1999.90;999.90;;;;;;;6.35;85.76;101434.31;1677195;85;20930;-69
2021/11/18 06:10:55;;;;;;;1999.90;999.90;;;;;;;6.36;85.76;101433.89;1688132;84;20915;-69
2021/11/18 06:13:22;;;;;;;1999.90;999.90;;;;;;;6.36;85.75;101428.33;1687064;84;21414;-69
2021/11/18 06:15:48;;;;;;;1999.90;999.90;;;;;;;6.35;85.63;101434.31;1666202;85;20923;-69
2021/11/18 06:18:14;;;;;;;1999.90;999.90;;;;;;;6.35;85.63;101434.31;1662523;85;21255;-69
2021/11/18 06:20:42;;;;;;;1999.90;999.90;;;;;;;6.37;85.73;101443.33;1681223;85;20955;-68
2021/11/18 06:23:12;;;;;;;1999.90;999.90;;;;;;;6.36;85.70;101439.89;1674817;84;21060;-69
2021/11/18 06:25:39;;;;;;;1999.90;999.90;;;;;;;6.36;85.69;101441.17;1686427;84;21583;-69
2021/11/18 06:28:10;;;;;;;1999.90;999.90;;;;;;;6.35;85.66;101442.44;1674306;84;21266;-69
2021/11/18 06:30:47;;;;;;;1999.90;999.90;;;;;;;6.34;85.68;101436.44;1686960;84;20977;-69
2021/11/18 06:33:17;;;;;;;1999.90;999.90;;;;;;;6.32;85.65;101439.41;1681506;85;21074;-69
2021/11/18 06:35:43;;;;;;;1999.90;999.90;;;;;;;6.30;85.61;101440.66;1671716;84;21053;-69
2021/11/18 06:38:10;;;;;;;1999.90;999.90;;;;;;;6.30;85.64;101451.36;1658300;85;20986;-69
2021/11/18 06:40:36;;;;;;;1999.90;999.90;;;;;;;6.29;85.67;101449.21;1652534;85;21049;-69
2021/11/18 06:43:04;;;;;;;;;;;;;;;6.29;85.65;101441.50;1638989;86;21006;-69
2021/11/18 06:45:36;;;;;;;1999.90;999.90;;;;;;;6.30;85.60;101444.52;1637110;86;20449;-69
2021/11/18 06:48:05;;;;;;;1999.90;999.90;;;;;;;6.30;85.63;101442.37;1659481;85;20971;-69
2021/11/18 06:50:32;;;;;;;1999.90;999.90;;;;;;;6.28;85.62;101452.62;1647792;85;20966;-69
2021/11/18 06:53:04;;;;;;;1999.90;999.90;;;;;;;6.28;85.63;101451.33;1646137;86;20912;-69
2021/11/18 06:55:30;;;;;;;1999.90;999.90;;;;;;;6.29;85.61;101452.20;1660005;85;20932;-69
2021/11/18 06:57:56;;;;;;;1999.90;999.90;;;;;;;6.28;85.61;101448.77;1659340;86;20888;-69
2021/11/18 07:00:23;;;;;;;1999.90;999.90;;;;;;;6.28;85.61;101451.33;1660202;86;20888;-69
2021/11/18 07:02:50;;;;;;;1999.90;999.90;;;;;;;6.28;85.49;101465.88;1656585;85;21023;-69
2021/11/18 07:05:16;;;;;;;1999.90;999.90;;;;;;;6.28;85.49;101465.88;1656009;85;20947;-69
2021/11/18 07:07:42;;;;;;;1999.90;999.90;;;;;;;6.27;85.58;101463.73;1637183;85;20962;-69
2021/11/18 07:10:11;;;;;;;1999.90;999.90;;;;;;;6.29;85.60;101467.61;1646172;86;21324;-69
2021/11/18 07:12:42;;;;;;;1999.90;999.90;;;;;;;6.28;85.57;101464.59;1655314;86;20916;-69
2021/11/18 07:15:12;;;;;;;1999.90;999.90;;;;;;;6.28;85.54;101474.88;1658842;86;20848;-69
2021/11/18 07:17:39;;;;;;;1999.90;999.90;;;;;;;6.29;85.56;101476.59;1661334;85;20931;-69
2021/11/18 07:20:08;;;;;;;;;;;;;;;6.28;85.57;101471.02;1625757;88;20950;-69
2021/11/18 07:22:36;;;;;;;103.95;96.67;;;;;;;6.29;85.59;101472.33;1581446;88;20456;-69
2021/11/18 07:25:07;;;;;;;117.75;109.75;;;;;;;6.30;85.58;101479.19;1610917;87;21020;-69
2021/11/18 07:27:33;;;;;;;1999.90;999.90;;;;;;;6.34;85.61;101483.95;1619009;87;20944;-69
2021/11/18 07:29:59;;;;;;;1065.05;560.55;;;;;;;6.36;85.58;101482.27;1629332;87;20929;-68
2021/11/18 07:32:25;;;;;;;1999.90;999.90;;;;;;;6.39;85.58;101486.59;1636451;87;20974;-69
2021/11/18 07:34:51;;;;;;;1999.90;999.90;;;;;;;6.42;85.58;101491.36;1635840;87;20982;-69
2021/11/18 07:37:17;;;;;;;139.50;129.97;;;;;;;6.45;85.55;101489.25;1661608;85;20918;-69
2021/11/18 07:39:43;;;;;;;148.57;137.70;;;;;;;6.32;85.50;101468.94;1685356;85;21589;-68
2021/11/18 07:42:10;;;;;;;148.53;138.82;;;;;;;6.47;85.50;101485.87;1670467;85;20879;-68
2021/11/18 07:44:36;;;;;;;129.78;121.33;;;;;;;6.48;85.46;101491.88;1657608;84;20938;-69
2021/11/18 07:47:02;;;;;;;125.23;116.67;;;;;;;6.49;85.45;101504.73;1660608;85;20982;-69
2021/11/18 07:49:28;;;;;;;123.13;114.45;;;;;;;6.50;85.45;101506.47;1680231;85;20887;-68
2021/11/18 07:51:54;;;;;;;112.00;103.45;;;;;;;6.52;85.46;101502.63;1684994;83;21365;-68
2021/11/18 07:54:24;;;;;;;112.42;104.45;;;;;;;6.54;85.45;101495.81;1679802;85;21290;-69
2021/11/18 07:56:52;;;;;;;134.03;125.33;;;;;;;6.55;85.43;101497.13;1682144;85;20863;-68
2021/11/18 07:59:19;;;;;;;133.82;124.70;;;;;;;6.55;85.42;101494.97;1670176;84;20871;-69
2021/11/18 08:01:46;;;;;;;129.50;121.02;;;;;;;6.55;85.43;101503.97;1673127;85;21086;-68
2021/11/18 08:04:12;;;;;;;133.40;124.15;;;;;;;6.56;85.40;101511.70;1680578;85;21029;-68
2021/11/18 08:06:39;;;;;;;114.82;106.32;;;;;;;6.59;85.43;101510.88;1671507;84;21049;-68
2021/11/18 08:09:13;;;;;;;128.35;119.50;;;;;;;6.60;85.44;101508.33;1680358;85;21035;-68
2021/11/18 08:11:41;;;;;;;130.95;122.28;;;;;;;6.62;85.40;101529.77;1682940;83;21022;-68
2021/11/18 08:14:08;;;;;;;128.90;120.30;;;;;;;6.63;85.44;101521.22;1662585;85;21039;-68
2021/11/18 08:16:35;;;;;;;1999.90;999.90;;;;;;;6.64;85.43;101517.81;1683107;84;21098;-68
2021/11/18 08:19:04;;;;;;;1999.90;999.90;;;;;;;6.68;85.46;101516.58;1682693;85;24065;-68
2021/11/18 08:21:31;;;;;;;1999.90;999.90;;;;;;;6.72;85.47;101519.21;1671387;84;21026;-68
2021/11/18 08:23:58;;;;;;;1999.90;999.90;;;;;;;6.73;85.41;101526.50;1683144;84;21617;-68
2021/11/18 08:26:25;;;;;;;107.15;17.10;;;;;;;6.78;85.49;101533.83;1681537;84;21030;-68
2021/11/18 08:28:52;;;;;;;25.57;9.48;;;;;;;6.82;85.52;101521.45;1679847;84;21102;-68
2021/11/18 08:31:21;;;;;;;27.07;11.08;;;;;;;6.87;85.48;101520.68;1680541;84;21031;-69
2021/11/18 08:33:47;;;;;;;23.35;10.15;;;;;;;6.93;85.48;101518.19;1662198;85;21076;-68
2021/11/18 08:36:14;;;;;;;30.43;9.83;;;;;;;6.97;85.36;101528.09;1661720;84;21147;-68
2021/11/18 08:38:41;;;;;;;27.17;10.23;;;;;;;6.99;85.37;101530.27;1609356;87;21084;-68
2021/11/18 08:41:09;;;;;;;;;;;;;;;7.00;85.33;101528.14;1632829;87;20953;-68
2021/11/18 08:43:44;;;;;;;22.73;8.15;;;;;;;7.02;85.27;101535.88;1634914;87;20223;-68
2021/11/18 08:46:13;;;;;;;55.98;10.93;;;;;;;7.07;85.37;101538.08;1632456;87;21133;-68
2021/11/18 08:48:41;;;;;;;18.98;8.20;;;;;;;7.12;85.45;101529.59;1620522;86;21009;-68
2021/11/18 08:51:09;;;;;;;18.98;7.90;;;;;;;7.19;85.40;101530.53;1630914;86;20986;-68
2021/11/18 08:53:39;;;;;;;21.62;8.75;;;;;;;7.19;85.33;101522.39;1632791;87;21009;-69
2021/11/18 08:56:07;;;;;;;23.25;8.63;;;;;;;7.21;85.33;101516.84;1609040;89;21095;-69
2021/11/18 08:58:38;;;;;;;19.12;8.20;;;;;;;7.28;85.37;101521.19;1625222;87;20942;-68
2021/11/18 09:01:09;;;;;;;25.12;8.90;;;;;;;7.36;85.40;101510.12;1617582;87;21576;-68
2021/11/18 09:03:36;;;;;;;21.70;8.28;;;;;;;7.41;85.35;101517.05;1634537;87;20977;-68
2021/11/18 09:06:09;;;;;;;27.10;9.78;;;;;;;7.47;85.33;101508.53;1633078;87;21452;-68
2021/11/18 09:08:36;;;;;;;26.95;10.03;;;;;;;7.48;85.22;101510.26;1636728;87;20974;-68
2021/11/18 09:11:08;;;;;;;26.17;8.78;;;;;;;7.46;85.15;101516.67;1636660;87;20946;-68
2021/11/18 09:13:36;;;;;;;22.17;8.78;;;;;;;7.46;85.13;101515.81;1640287;87;20977;-68
2021/11/18 09:16:04;;;;;;;26.42;10.53;;;;;;;7.49;85.20;101507.70;1650746;85;20961;-68
2021/11/18 09:18:31;;;;;;;24.15;10.75;;;;;;;7.53;85.26;101497.88;1647984;85;20876;-69
2021/11/18 09:20:58;;;;;;;23.07;9.33;;;;;;;7.58;85.25;101506.52;1634247;87;20929;-68
2021/11/18 09:23:30;;;;;;;23.12;8.93;;;;;;;7.61;85.19;101514.69;1634933;87;20946;-69
2021/11/18 09:25:56;;;;;;;20.32;8.93;;;;;;;7.62;85.22;101520.28;1638594;87;20934;-69
2021/11/18 09:28:25;;;;;;;25.70;8.95;;;;;;;7.65;85.20;101525.46;1641504;85;20972;-69
2021/11/18 09:30:57;;;;;;;25.80;10.23;;;;;;;7.67;85.17;101531.49;1622830;88;21005;-69
2021/11/18 09:33:26;;;;;;;23.67;8.78;;;;;;;7.66;85.11;101547.78;1658647;86;20931;-69
2021/11/18 09:35:56;;;;;;;25.37;9.38;;;;;;;7.68;85.14;101551.66;1661190;85;20974;-69
2021/11/18 09:38:27;;;;;;;25.82;8.63;;;;;;;7.70;85.18;101552.12;1650397;86;21068;-69
2021/11/18 09:41:10;;;;;;;25.27;10.28;;;;;;;7.73;85.15;101540.56;1632332;87;21048;-69
2021/11/18 09:44:17;;;;;;;24.95;11.03;;;;;;;7.76;85.18;101541.02;1646435;86;21076;-69
2021/11/18 09:47:08;;;;;;;48.30;23.07;;;;;;;7.76;85.09;101535.88;1684387;85;20911;-68
2021/11/18 09:50:15;;;;;;;23.62;12.18;;;;;;;7.76;85.09;101536.73;1673433;84;20985;-68
2021/11/18 09:53:24;;;;;;;27.60;11.05;;;;;;;7.82;85.18;101523.03;1673715;83;21011;-69
2021/11/18 09:56:10;;;;;;;21.77;8.50;;;;;;;7.91;85.16;101529.56;1664443;85;21007;-68
2021/11/18 09:59:18;;;;;;;23.32;9.80;;;;;;;7.91;85.05;101530.84;1682051;84;26773;-69
2021/11/18 10:02:18;;;;;;;26.52;12.13;;;;;;;7.90;85.03;101523.97;1657760;85;21132;-68
2021/11/18 10:05:04;;;;;;;22.67;9.90;;;;;;;7.88;84.97;101510.22;1643111;86;21116;-68
2021/11/18 10:07:49;;;;;;;21.82;9.78;;;;;;;7.87;85.01;101525.23;1670133;85;21051;-68
2021/11/18 10:11:00;;;;;;;26.25;9.48;;;;;;;7.85;85.00;101519.20;1658354;86;21509;-68
2021/11/18 10:13:49;;;;;;;27.43;9.00;;;;;;;7.83;84.94;101528.62;1628797;87;21143;-68
2021/11/18 10:16:21;;;;;;;24.37;9.03;;;;;;;7.80;84.97;101557.77;1627180;87;21220;-68
2021/11/18 10:18:52;;;;;;;20.60;8.85;;;;;;;7.78;84.97;101540.19;1621335;87;21123;-68
2021/11/18 10:21:27;;;;;;;25.32;8.28;;;;;;;7.78;84.96;101520.02;1649190;86;21128;-69
2021/11/18 10:23:58;;;;;;;19.70;8.35;;;;;;;7.77;84.98;101510.14;1657826;84;21399;-68
2021/11/18 10:26:32;;;;;;;21.93;8.45;;;;;;;7.76;84.94;101511.41;1633541;86;21073;-68
2021/11/18 10:29:14;;;;;;;28.58;9.29;;;;;;;7.75;84.93;101532.44;1635586;85;10001208;-68
2021/11/18 10:31:51;;;;;;;22.13;8.43;;;;;;;7.76;85.03;101546.17;1679154;84;21039;-69
2021/11/18 10:34:52;;;;;;;18.37;8.50;;;;;;;7.79;84.97;101548.36;1683988;83;21607;-69
2021/11/18 10:37:29;;;;;;;26.77;8.90;;;;;;;7.83;84.96;101550.50;1676797;84;20907;-68
2021/11/18 10:40:22;;;;;;;21.17;8.45;;;;;;;7.90;84.94;101558.73;1673105;85;21383;-68
2021/11/18 10:42:59;;;;;;;22.67;9.53;;;;;;;7.97;84.92;101565.67;1649236;84;21005;-68
2021/11/18 10:45:35;;;;;;;22.27;9.33;;;;;;;8.04;84.89;101554.58;1668755;85;20856;-68
2021/11/18 10:48:28;;;;;;;21.05;8.70;;;;;;;8.10;84.82;101555.06;1546555;84;10000538;-69
2021/11/18 10:51:00;;;;;;;26.45;8.50;;;;;;;8.20;84.92;101542.70;1643449;87;20965;-68
2021/11/18 10:53:29;;;;;;;23.67;11.43;;;;;;;8.33;84.94;101537.23;1641947;85;20938;-68
2021/11/18 10:56:09;;;;;;;29.02;9.93;;;;;;;8.39;84.81;101532.13;1675295;84;20932;-69
2021/11/18 10:58:48;;;;;;;18.95;9.05;;;;;;;8.42;84.79;101514.98;1684582;84;20931;-68
2021/11/18 11:01:31;;;;;;;23.15;9.35;;;;;;;8.47;84.75;101514.58;1663294;84;21538;-68
2021/11/18 11:04:02;;;;;;;23.60;8.30;;;;;;;8.48;84.64;101502.13;1674625;85;20895;-68
2021/11/18 11:06:32;;;;;;;23.87;8.73;;;;;;;8.52;84.69;101511.61;1660440;86;21543;-68
2021/11/18 11:09:18;;;;;;;19.23;7.67;;;;;;;8.58;84.71;101515.95;1669656;84;21037;-68
2021/11/18 11:12:08;;;;;;;19.55;7.50;;;;;;;8.62;84.64;101525.42;1637033;86;21001;-68
2021/11/18 11:15:13;;;;;;;1999.90;999.90;;;;;;;8.67;84.61;101532.77;1682383;85;21010;-68
2021/11/18 11:18:13;;;;;;;1999.90;999.90;;;;;;;8.80;84.70;101524.69;1669602;85;21094;-68